sensor_id;sensor_type;location;lat;lon;timestamp;pressure;altitude;pressure_sealevel;temperature;humidity
31911;BME280;18457;52.432;16.914;2023-12-20T00:01:05;99749.38;;;7.49;100.00
31911;BME280;18457;52.432;16.914;2023-12-20T00:03:47;99747.92;;;7.50;100.00
31911;BME280;18457;52.432;16.914;2023-12-20T00:06:20;99743.92;;;7.52;100.00
31911;BME280;18457;52.432;16.914;2023-12-20T00:08:52;99732.40;;;7.53;100.00
31911;BME280;18457;52.432;16.914;2023-12-20T00:11:24;99737.40;;;7.55;100.00
31911;BME280;18457;52.432;16.914;2023-12-20T00:13:57;99737.25;;;7.53;100.00
31911;BME280;18457;52.432;16.914;2023-12-20T00:16:30;99735.45;;;7.53;100.00
31911;BME280;18457;52.432;16.914;2023-12-20T00:19:02;99727.81;;;7.57;100.00
31911;BME280;18457;52.432;16.914;2023-12-20T00:21:35;99721.77;;;7.54;100.00
31911;BME280;18457;52.432;16.914;2023-12-20T00:24:07;99724.20;;;7.50;100.00
31911;BME280;18457;52.432;16.914;2023-12-20T00:26:40;99720.56;;;7.52;100.00
31911;BME280;18457;52.432;16.914;2023-12-20T00:29:12;99722.47;;;7.47;100.00
31911;BME280;18457;52.432;16.914;2023-12-20T00:31:45;99728.80;;;7.45;100.00
31911;BME280;18457;52.432;16.914;2023-12-20T00:34:19;99718.95;;;7.51;100.00
31911;BME280;18457;52.432;16.914;2023-12-20T00:36:52;99717.55;;;7.50;100.00
31911;BME280;18457;52.432;16.914;2023-12-20T00:39:26;99715.02;;;7.50;100.00
31911;BME280;18457;52.432;16.914;2023-12-20T00:41:58;99722.77;;;7.49;100.00
31911;BME280;18457;52.432;16.914;2023-12-20T00:44:30;99719.86;;;7.59;100.00
31911;BME280;18457;52.432;16.914;2023-12-20T00:47:03;99719.74;;;7.64;100.00
31911;BME280;18457;52.432;16.914;2023-12-20T00:49:35;99718.30;;;7.56;100.00
31911;BME280;18457;52.432;16.914;2023-12-20T00:52:08;99716.08;;;7.60;100.00
31911;BME280;18457;52.432;16.914;2023-12-20T00:54:40;99718.73;;;7.61;100.00
31911;BME280;18457;52.432;16.914;2023-12-20T00:57:13;99718.70;;;7.71;100.00
31911;BME280;18457;52.432;16.914;2023-12-20T00:59:45;99715.87;;;7.60;100.00
31911;BME280;18457;52.432;16.914;2023-12-20T01:02:16;99710.27;;;7.54;100.00
31911;BME280;18457;52.432;16.914;2023-12-20T01:04:49;99712.17;;;7.50;100.00
31911;BME280;18457;52.432;16.914;2023-12-20T01:07:21;99714.96;;;7.61;100.00
31911;BME280;18457;52.432;16.914;2023-12-20T01:09:52;99714.50;;;7.58;100.00
31911;BME280;18457;52.432;16.914;2023-12-20T01:12:25;99706.91;;;7.51;100.00
31911;BME280;18457;52.432;16.914;2023-12-20T01:14:57;99703.34;;;7.51;100.00
31911;BME280;18457;52.432;16.914;2023-12-20T01:17:28;99698.97;;;7.60;100.00
31911;BME280;18457;52.432;16.914;2023-12-20T01:20:01;99703.14;;;7.67;100.00
31911;BME280;18457;52.432;16.914;2023-12-20T01:22:33;99705.00;;;7.64;100.00
31911;BME280;18457;52.432;16.914;2023-12-20T01:25:07;99703.64;;;7.68;100.00
31911;BME280;18457;52.432;16.914;2023-12-20T01:27:40;99702.95;;;7.67;100.00
31911;BME280;18457;52.432;16.914;2023-12-20T01:30:14;99695.92;;;7.61;100.00
31911;BME280;18457;52.432;16.914;2023-12-20T01:32:47;99701.83;;;7.69;100.00
31911;BME280;18457;52.432;16.914;2023-12-20T01:35:19;99695.92;;;7.75;100.00
31911;BME280;18457;52.432;16.914;2023-12-20T01:37:52;99694.42;;;7.77;100.00
31911;BME280;18457;52.432;16.914;2023-12-20T01:40:27;99700.52;;;7.85;100.00
31911;BME280;18457;52.432;16.914;2023-12-20T01:43:07;99687.34;;;7.88;100.00
31911;BME280;18457;52.432;16.914;2023-12-20T01:45:40;99677.19;;;7.84;100.00
31911;BME280;18457;52.432;16.914;2023-12-20T01:48:13;99675.36;;;7.85;100.00
31911;BME280;18457;52.432;16.914;2023-12-20T01:50:47;99671.74;;;7.79;100.00
31911;BME280;18457;52.432;16.914;2023-12-20T01:53:21;99667.25;;;7.79;100.00
31911;BME280;18457;52.432;16.914;2023-12-20T01:55:56;99669.30;;;7.82;100.00
31911;BME280;18457;52.432;16.914;2023-12-20T01:58:29;99669.79;;;7.78;100.00
31911;BME280;18457;52.432;16.914;2023-12-20T02:01:01;99664.98;;;7.83;100.00
31911;BME280;18457;52.432;16.914;2023-12-20T02:03:33;99666.07;;;7.82;100.00
31911;BME280;18457;52.432;16.914;2023-12-20T02:06:08;99670.64;;;7.80;100.00
31911;BME280;18457;52.432;16.914;2023-12-20T02:08:41;99670.83;;;7.80;100.00
31911;BME280;18457;52.432;16.914;2023-12-20T02:11:12;99663.62;;;7.80;100.00
31911;BME280;18457;52.432;16.914;2023-12-20T02:13:45;99660.84;;;7.84;100.00
31911;BME280;18457;52.432;16.914;2023-12-20T02:16:17;99655.70;;;7.87;100.00
31911;BME280;18457;52.432;16.914;2023-12-20T02:18:50;99652.14;;;7.86;100.00
31911;BME280;18457;52.432;16.914;2023-12-20T02:21:32;99653.34;;;7.81;100.00
31911;BME280;18457;52.432;16.914;2023-12-20T02:24:06;99654.66;;;7.79;100.00
31911;BME280;18457;52.432;16.914;2023-12-20T02:26:38;99650.73;;;7.70;100.00
31911;BME280;18457;52.432;16.914;2023-12-20T02:29:13;99643.93;;;7.77;100.00
31911;BME280;18457;52.432;16.914;2023-12-20T02:31:45;99644.19;;;7.74;100.00
31911;BME280;18457;52.432;16.914;2023-12-20T02:34:17;99642.98;;;7.79;100.00
31911;BME280;18457;52.432;16.914;2023-12-20T02:36:50;99641.30;;;7.81;100.00
31911;BME280;18457;52.432;16.914;2023-12-20T02:39:24;99639.29;;;7.82;100.00
31911;BME280;18457;52.432;16.914;2023-12-20T02:41:56;99640.81;;;7.79;100.00
31911;BME280;18457;52.432;16.914;2023-12-20T02:44:29;99637.77;;;7.72;100.00
31911;BME280;18457;52.432;16.914;2023-12-20T02:47:01;99635.83;;;7.71;100.00
31911;BME280;18457;52.432;16.914;2023-12-20T02:49:33;99632.03;;;7.71;100.00
31911;BME280;18457;52.432;16.914;2023-12-20T02:52:06;99631.79;;;7.66;100.00
31911;BME280;18457;52.432;16.914;2023-12-20T02:54:37;99633.90;;;7.69;100.00
31911;BME280;18457;52.432;16.914;2023-12-20T02:57:10;99638.21;;;7.75;100.00
31911;BME280;18457;52.432;16.914;2023-12-20T02:59:42;99637.03;;;7.72;100.00
31911;BME280;18457;52.432;16.914;2023-12-20T03:02:15;99636.93;;;7.62;100.00
31911;BME280;18457;52.432;16.914;2023-12-20T03:04:47;99637.42;;;7.49;100.00
31911;BME280;18457;52.432;16.914;2023-12-20T03:07:19;99632.52;;;7.44;100.00
31911;BME280;18457;52.432;16.914;2023-12-20T03:09:52;99628.98;;;7.42;100.00
31911;BME280;18457;52.432;16.914;2023-12-20T03:12:44;99629.95;;;7.39;100.00
31911;BME280;18457;52.432;16.914;2023-12-20T03:15:17;99622.36;;;7.26;100.00
31911;BME280;18457;52.432;16.914;2023-12-20T03:17:48;99623.56;;;7.36;100.00
31911;BME280;18457;52.432;16.914;2023-12-20T03:20:21;99621.39;;;7.37;100.00
31911;BME280;18457;52.432;16.914;2023-12-20T03:22:53;99612.00;;;7.23;100.00
31911;BME280;18457;52.432;16.914;2023-12-20T03:25:26;99618.00;;;7.27;100.00
31911;BME280;18457;52.432;16.914;2023-12-20T03:27:59;99611.06;;;7.25;100.00
31911;BME280;18457;52.432;16.914;2023-12-20T03:30:31;99604.02;;;7.34;100.00
31911;BME280;18457;52.432;16.914;2023-12-20T03:33:04;99607.08;;;7.40;100.00
31911;BME280;18457;52.432;16.914;2023-12-20T03:35:36;99601.85;;;7.42;100.00
31911;BME280;18457;52.432;16.914;2023-12-20T03:38:08;99604.73;;;7.26;100.00
31911;BME280;18457;52.432;16.914;2023-12-20T03:40:41;99606.27;;;7.22;100.00
31911;BME280;18457;52.432;16.914;2023-12-20T03:43:13;99610.59;;;7.15;100.00
31911;BME280;18457;52.432;16.914;2023-12-20T03:45:46;99611.80;;;7.17;100.00
31911;BME280;18457;52.432;16.914;2023-12-20T03:48:18;99608.07;;;7.15;100.00
31911;BME280;18457;52.432;16.914;2023-12-20T03:50:50;99609.17;;;7.21;100.00
31911;BME280;18457;52.432;16.914;2023-12-20T03:53:23;99610.59;;;7.22;100.00
31911;BME280;18457;52.432;16.914;2023-12-20T03:55:56;99608.59;;;7.16;100.00
31911;BME280;18457;52.432;16.914;2023-12-20T03:58:30;99606.73;;;7.25;100.00
31911;BME280;18457;52.432;16.914;2023-12-20T04:01:02;99605.23;;;7.35;100.00
31911;BME280;18457;52.432;16.914;2023-12-20T04:03:33;99608.16;;;7.34;100.00
31911;BME280;18457;52.432;16.914;2023-12-20T04:06:05;99608.48;;;7.42;100.00
31911;BME280;18457;52.432;16.914;2023-12-20T04:08:36;99604.42;;;7.25;100.00
31911;BME280;18457;52.432;16.914;2023-12-20T04:11:08;99605.64;;;7.19;100.00
31911;BME280;18457;52.432;16.914;2023-12-20T04:13:41;99606.19;;;7.18;100.00
31911;BME280;18457;52.432;16.914;2023-12-20T04:16:14;99606.56;;;7.18;100.00
31911;BME280;18457;52.432;16.914;2023-12-20T04:18:45;99606.13;;;7.13;100.00
31911;BME280;18457;52.432;16.914;2023-12-20T04:21:17;99608.69;;;7.19;100.00
31911;BME280;18457;52.432;16.914;2023-12-20T04:23:49;99607.63;;;7.10;100.00
31911;BME280;18457;52.432;16.914;2023-12-20T04:26:22;99602.38;;;7.04;100.00
31911;BME280;18457;52.432;16.914;2023-12-20T04:28:54;99597.80;;;7.01;100.00
31911;BME280;18457;52.432;16.914;2023-12-20T04:31:27;99598.19;;;7.07;100.00
31911;BME280;18457;52.432;16.914;2023-12-20T04:33:59;99594.52;;;7.02;100.00
31911;BME280;18457;52.432;16.914;2023-12-20T04:36:32;99592.58;;;7.01;100.00
31911;BME280;18457;52.432;16.914;2023-12-20T04:39:04;99595.43;;;7.02;100.00
31911;BME280;18457;52.432;16.914;2023-12-20T04:41:37;99591.41;;;6.96;100.00
31911;BME280;18457;52.432;16.914;2023-12-20T04:44:10;99587.45;;;6.97;100.00
31911;BME280;18457;52.432;16.914;2023-12-20T04:46:42;99587.91;;;6.93;100.00
31911;BME280;18457;52.432;16.914;2023-12-20T04:49:15;99588.30;;;7.00;100.00
31911;BME280;18457;52.432;16.914;2023-12-20T04:51:47;99588.50;;;6.99;100.00
31911;BME280;18457;52.432;16.914;2023-12-20T04:54:20;99583.24;;;7.01;100.00
31911;BME280;18457;52.432;16.914;2023-12-20T04:56:52;99582.05;;;6.98;100.00
31911;BME280;18457;52.432;16.914;2023-12-20T04:59:25;99582.54;;;7.00;100.00
31911;BME280;18457;52.432;16.914;2023-12-20T05:01:58;99596.55;;;7.00;100.00
31911;BME280;18457;52.432;16.914;2023-12-20T05:04:30;99595.64;;;6.93;100.00
31911;BME280;18457;52.432;16.914;2023-12-20T05:07:03;99597.74;;;6.95;100.00
31911;BME280;18457;52.432;16.914;2023-12-20T05:09:36;99596.04;;;6.99;100.00
31911;BME280;18457;52.432;16.914;2023-12-20T05:12:09;99596.83;;;6.96;100.00
31911;BME280;18457;52.432;16.914;2023-12-20T05:14:42;99594.76;;;6.92;100.00
31911;BME280;18457;52.432;16.914;2023-12-20T05:17:14;99599.31;;;6.89;100.00
31911;BME280;18457;52.432;16.914;2023-12-20T05:19:46;99600.50;;;6.92;100.00
31911;BME280;18457;52.432;16.914;2023-12-20T05:22:19;99600.53;;;6.90;100.00
31911;BME280;18457;52.432;16.914;2023-12-20T05:24:52;99599.22;;;6.93;100.00
31911;BME280;18457;52.432;16.914;2023-12-20T05:27:25;99597.46;;;6.99;100.00
31911;BME280;18457;52.432;16.914;2023-12-20T05:29:57;99597.04;;;7.02;100.00
31911;BME280;18457;52.432;16.914;2023-12-20T05:32:30;99598.95;;;6.98;100.00
31911;BME280;18457;52.432;16.914;2023-12-20T05:35:02;99595.34;;;6.98;100.00
31911;BME280;18457;52.432;16.914;2023-12-20T05:37:35;99601.81;;;7.06;100.00
31911;BME280;18457;52.432;16.914;2023-12-20T05:40:09;99599.47;;;7.06;100.00
31911;BME280;18457;52.432;16.914;2023-12-20T05:42:41;99597.42;;;7.01;100.00
31911;BME280;18457;52.432;16.914;2023-12-20T05:45:16;99587.88;;;7.03;100.00
31911;BME280;18457;52.432;16.914;2023-12-20T05:47:48;99588.89;;;7.05;100.00
31911;BME280;18457;52.432;16.914;2023-12-20T05:50:20;99593.57;;;7.13;100.00
31911;BME280;18457;52.432;16.914;2023-12-20T05:52:53;99590.48;;;7.06;100.00
31911;BME280;18457;52.432;16.914;2023-12-20T05:55:26;99593.59;;;7.04;100.00
31911;BME280;18457;52.432;16.914;2023-12-20T05:57:58;99591.73;;;7.07;100.00
31911;BME280;18457;52.432;16.914;2023-12-20T06:00:32;99592.55;;;7.03;100.00
31911;BME280;18457;52.432;16.914;2023-12-20T06:03:05;99593.81;;;7.01;100.00
31911;BME280;18457;52.432;16.914;2023-12-20T06:05:35;99589.81;;;7.04;100.00
31911;BME280;18457;52.432;16.914;2023-12-20T06:08:08;99589.14;;;7.02;100.00
31911;BME280;18457;52.432;16.914;2023-12-20T06:10:40;99592.61;;;6.99;100.00
31911;BME280;18457;52.432;16.914;2023-12-20T06:13:12;99589.61;;;6.97;100.00
31911;BME280;18457;52.432;16.914;2023-12-20T06:15:45;99589.34;;;6.94;100.00
31911;BME280;18457;52.432;16.914;2023-12-20T06:18:17;99587.61;;;6.98;100.00
31911;BME280;18457;52.432;16.914;2023-12-20T06:20:50;99587.64;;;6.98;100.00
31911;BME280;18457;52.432;16.914;2023-12-20T06:23:22;99580.36;;;6.94;100.00
31911;BME280;18457;52.432;16.914;2023-12-20T06:25:54;99584.26;;;6.96;100.00
31911;BME280;18457;52.432;16.914;2023-12-20T06:28:26;99580.75;;;7.00;100.00
31911;BME280;18457;52.432;16.914;2023-12-20T06:30:59;99586.09;;;6.94;100.00
31911;BME280;18457;52.432;16.914;2023-12-20T06:33:32;99592.51;;;6.96;100.00
31911;BME280;18457;52.432;16.914;2023-12-20T06:36:05;99599.48;;;6.98;100.00
31911;BME280;18457;52.432;16.914;2023-12-20T06:38:37;99601.56;;;7.09;100.00
31911;BME280;18457;52.432;16.914;2023-12-20T06:41:10;99597.35;;;7.13;100.00
31911;BME280;18457;52.432;16.914;2023-12-20T06:43:44;99593.52;;;7.07;100.00
31911;BME280;18457;52.432;16.914;2023-12-20T06:46:21;99598.96;;;6.97;100.00
31911;BME280;18457;52.432;16.914;2023-12-20T06:48:53;99600.10;;;6.94;100.00
31911;BME280;18457;52.432;16.914;2023-12-20T06:51:26;99604.30;;;6.91;100.00
31911;BME280;18457;52.432;16.914;2023-12-20T06:53:58;99599.77;;;6.93;100.00
31911;BME280;18457;52.432;16.914;2023-12-20T06:56:31;99600.79;;;6.95;100.00
31911;BME280;18457;52.432;16.914;2023-12-20T06:59:03;99604.58;;;7.02;100.00
31911;BME280;18457;52.432;16.914;2023-12-20T07:01:35;99605.16;;;7.00;100.00
31911;BME280;18457;52.432;16.914;2023-12-20T07:04:08;99613.14;;;6.97;100.00
31911;BME280;18457;52.432;16.914;2023-12-20T07:06:40;99620.16;;;6.88;100.00
31911;BME280;18457;52.432;16.914;2023-12-20T07:09:12;99627.81;;;6.91;100.00
31911;BME280;18457;52.432;16.914;2023-12-20T07:11:44;99628.32;;;6.84;100.00
31911;BME280;18457;52.432;16.914;2023-12-20T07:14:17;99627.54;;;6.87;100.00
31911;BME280;18457;52.432;16.914;2023-12-20T07:16:49;99632.99;;;6.92;100.00
31911;BME280;18457;52.432;16.914;2023-12-20T07:19:22;99638.04;;;6.92;100.00
31911;BME280;18457;52.432;16.914;2023-12-20T07:21:54;99647.67;;;6.95;100.00
31911;BME280;18457;52.432;16.914;2023-12-20T07:24:27;99652.26;;;6.90;100.00
31911;BME280;18457;52.432;16.914;2023-12-20T07:26:58;99649.84;;;6.94;100.00
31911;BME280;18457;52.432;16.914;2023-12-20T07:29:30;99652.64;;;6.89;100.00
31911;BME280;18457;52.432;16.914;2023-12-20T07:32:02;99653.86;;;6.90;100.00
31911;BME280;18457;52.432;16.914;2023-12-20T07:34:35;99647.94;;;6.90;100.00
31911;BME280;18457;52.432;16.914;2023-12-20T07:37:08;99652.30;;;6.88;100.00
31911;BME280;18457;52.432;16.914;2023-12-20T07:39:41;99657.69;;;6.87;100.00
31911;BME280;18457;52.432;16.914;2023-12-20T07:42:14;99655.99;;;6.91;100.00
31911;BME280;18457;52.432;16.914;2023-12-20T07:44:46;99652.26;;;6.90;100.00
31911;BME280;18457;52.432;16.914;2023-12-20T07:47:19;99654.48;;;6.86;100.00
31911;BME280;18457;52.432;16.914;2023-12-20T07:49:52;99652.36;;;6.85;100.00
31911;BME280;18457;52.432;16.914;2023-12-20T07:52:23;99651.23;;;6.87;100.00
31911;BME280;18457;52.432;16.914;2023-12-20T07:54:57;99652.88;;;6.86;100.00
31911;BME280;18457;52.432;16.914;2023-12-20T07:57:31;99647.28;;;6.87;100.00
31911;BME280;18457;52.432;16.914;2023-12-20T08:00:04;99639.41;;;6.94;100.00
31911;BME280;18457;52.432;16.914;2023-12-20T08:02:37;99643.58;;;6.93;100.00
31911;BME280;18457;52.432;16.914;2023-12-20T08:05:10;99641.77;;;6.93;100.00
31911;BME280;18457;52.432;16.914;2023-12-20T08:07:42;99645.10;;;7.05;100.00
31911;BME280;18457;52.432;16.914;2023-12-20T08:10:13;99634.23;;;7.09;100.00
31911;BME280;18457;52.432;16.914;2023-12-20T08:12:46;99628.89;;;7.15;100.00
31911;BME280;18457;52.432;16.914;2023-12-20T08:15:18;99627.00;;;7.11;100.00
31911;BME280;18457;52.432;16.914;2023-12-20T08:17:51;99624.73;;;7.09;100.00
31911;BME280;18457;52.432;16.914;2023-12-20T08:20:24;99622.75;;;7.09;100.00
31911;BME280;18457;52.432;16.914;2023-12-20T08:23:10;99621.94;;;6.96;100.00
31911;BME280;18457;52.432;16.914;2023-12-20T08:25:42;99630.95;;;6.87;100.00
31911;BME280;18457;52.432;16.914;2023-12-20T08:28:14;99632.63;;;6.84;100.00
31911;BME280;18457;52.432;16.914;2023-12-20T08:30:47;99632.91;;;6.80;100.00
31911;BME280;18457;52.432;16.914;2023-12-20T08:33:24;99632.86;;;6.74;100.00
31911;BME280;18457;52.432;16.914;2023-12-20T08:35:57;99635.27;;;6.70;100.00
31911;BME280;18457;52.432;16.914;2023-12-20T08:38:30;99636.94;;;6.68;100.00
31911;BME280;18457;52.432;16.914;2023-12-20T08:41:02;99636.36;;;6.69;100.00
31911;BME280;18457;52.432;16.914;2023-12-20T08:43:36;99639.91;;;6.63;100.00
31911;BME280;18457;52.432;16.914;2023-12-20T08:46:11;99626.73;;;6.66;100.00
31911;BME280;18457;52.432;16.914;2023-12-20T08:48:42;99635.60;;;6.71;100.00
31911;BME280;18457;52.432;16.914;2023-12-20T08:51:15;99640.13;;;6.69;100.00
31911;BME280;18457;52.432;16.914;2023-12-20T08:53:47;99639.13;;;6.66;100.00
31911;BME280;18457;52.432;16.914;2023-12-20T08:56:20;99632.83;;;6.67;100.00
31911;BME280;18457;52.432;16.914;2023-12-20T08:58:52;99636.36;;;6.70;100.00
31911;BME280;18457;52.432;16.914;2023-12-20T09:01:25;99641.19;;;6.70;100.00
31911;BME280;18457;52.432;16.914;2023-12-20T09:03:57;99641.62;;;6.67;100.00
31911;BME280;18457;52.432;16.914;2023-12-20T09:06:28;99642.27;;;6.61;100.00
31911;BME280;18457;52.432;16.914;2023-12-20T09:09:01;99632.34;;;6.65;100.00
31911;BME280;18457;52.432;16.914;2023-12-20T09:11:33;99626.08;;;6.63;100.00
31911;BME280;18457;52.432;16.914;2023-12-20T09:14:05;99624.24;;;6.65;100.00
31911;BME280;18457;52.432;16.914;2023-12-20T09:16:36;99618.66;;;6.67;100.00
31911;BME280;18457;52.432;16.914;2023-12-20T09:19:09;99617.61;;;6.73;100.00
31911;BME280;18457;52.432;16.914;2023-12-20T09:21:41;99618.39;;;6.87;100.00
31911;BME280;18457;52.432;16.914;2023-12-20T09:24:13;99616.30;;;6.91;100.00
31911;BME280;18457;52.432;16.914;2023-12-20T09:26:46;99610.86;;;6.95;100.00
31911;BME280;18457;52.432;16.914;2023-12-20T09:29:18;99608.16;;;7.02;100.00
31911;BME280;18457;52.432;16.914;2023-12-20T09:31:50;99610.51;;;7.10;100.00
31911;BME280;18457;52.432;16.914;2023-12-20T09:34:21;99611.89;;;7.27;100.00
31911;BME280;18457;52.432;16.914;2023-12-20T09:36:54;99611.31;;;7.22;100.00
31911;BME280;18457;52.432;16.914;2023-12-20T09:39:26;99612.84;;;7.26;100.00
31911;BME280;18457;52.432;16.914;2023-12-20T09:42:02;99614.35;;;7.45;100.00
31911;BME280;18457;52.432;16.914;2023-12-20T09:44:35;99619.82;;;7.49;100.00
31911;BME280;18457;52.432;16.914;2023-12-20T09:47:08;99610.80;;;7.50;100.00
31911;BME280;18457;52.432;16.914;2023-12-20T09:49:44;99609.45;;;7.54;100.00
31911;BME280;18457;52.432;16.914;2023-12-20T09:52:17;99607.04;;;7.50;100.00
31911;BME280;18457;52.432;16.914;2023-12-20T09:54:51;99609.84;;;7.45;100.00
31911;BME280;18457;52.432;16.914;2023-12-20T09:57:24;99607.26;;;7.41;100.00
31911;BME280;18457;52.432;16.914;2023-12-20T09:59:55;99601.98;;;7.29;100.00
31911;BME280;18457;52.432;16.914;2023-12-20T10:02:28;99596.52;;;7.40;100.00
31911;BME280;18457;52.432;16.914;2023-12-20T10:05:04;99591.52;;;7.38;100.00
31911;BME280;18457;52.432;16.914;2023-12-20T10:07:40;99588.08;;;7.32;100.00
31911;BME280;18457;52.432;16.914;2023-12-20T10:10:13;99588.72;;;7.35;100.00
31911;BME280;18457;52.432;16.914;2023-12-20T10:13:03;99575.81;;;7.41;100.00
31911;BME280;18457;52.432;16.914;2023-12-20T10:15:36;99574.24;;;7.39;100.00
31911;BME280;18457;52.432;16.914;2023-12-20T10:18:09;99568.44;;;7.34;100.00
31911;BME280;18457;52.432;16.914;2023-12-20T10:20:43;99561.87;;;7.39;100.00
31911;BME280;18457;52.432;16.914;2023-12-20T10:23:17;99559.85;;;7.33;100.00
31911;BME280;18457;52.432;16.914;2023-12-20T10:25:58;99559.93;;;7.29;100.00
31911;BME280;18457;52.432;16.914;2023-12-20T10:28:34;99551.02;;;7.34;100.00
31911;BME280;18457;52.432;16.914;2023-12-20T10:31:07;99551.99;;;7.31;100.00
31911;BME280;18457;52.432;16.914;2023-12-20T10:33:41;99555.13;;;7.35;100.00
31911;BME280;18457;52.432;16.914;2023-12-20T10:36:13;99558.52;;;7.36;100.00
31911;BME280;18457;52.432;16.914;2023-12-20T10:38:46;99548.80;;;7.29;100.00
31911;BME280;18457;52.432;16.914;2023-12-20T10:41:26;99544.13;;;7.30;100.00
31911;BME280;18457;52.432;16.914;2023-12-20T10:44:01;99537.77;;;7.32;100.00
31911;BME280;18457;52.432;16.914;2023-12-20T10:46:35;99534.05;;;7.30;100.00
31911;BME280;18457;52.432;16.914;2023-12-20T10:49:08;99535.75;;;7.26;100.00
31911;BME280;18457;52.432;16.914;2023-12-20T10:51:41;99538.79;;;7.28;100.00
31911;BME280;18457;52.432;16.914;2023-12-20T10:54:14;99536.84;;;7.33;100.00
31911;BME280;18457;52.432;16.914;2023-12-20T10:56:47;99534.79;;;7.22;100.00
31911;BME280;18457;52.432;16.914;2023-12-20T10:59:24;99529.23;;;7.29;100.00
31911;BME280;18457;52.432;16.914;2023-12-20T11:01:57;99528.09;;;7.39;100.00
31911;BME280;18457;52.432;16.914;2023-12-20T11:04:39;99518.79;;;7.38;100.00
31911;BME280;18457;52.432;16.914;2023-12-20T11:07:19;99521.03;;;7.40;100.00
31911;BME280;18457;52.432;16.914;2023-12-20T11:09:59;99514.90;;;7.35;100.00
31911;BME280;18457;52.432;16.914;2023-12-20T11:12:39;99508.92;;;7.36;100.00
31911;BME280;18457;52.432;16.914;2023-12-20T11:15:13;99505.91;;;7.35;100.00
31911;BME280;18457;52.432;16.914;2023-12-20T11:17:47;99499.55;;;7.30;100.00
31911;BME280;18457;52.432;16.914;2023-12-20T11:20:36;99494.93;;;7.28;100.00
31911;BME280;18457;52.432;16.914;2023-12-20T11:23:10;99488.48;;;7.27;100.00
31911;BME280;18457;52.432;16.914;2023-12-20T11:25:53;99491.14;;;7.22;100.00
31911;BME280;18457;52.432;16.914;2023-12-20T11:28:26;99482.09;;;7.11;100.00
31911;BME280;18457;52.432;16.914;2023-12-20T11:31:02;99477.80;;;7.10;100.00
31911;BME280;18457;52.432;16.914;2023-12-20T11:33:37;99472.86;;;7.21;100.00
31911;BME280;18457;52.432;16.914;2023-12-20T11:36:18;99470.66;;;7.29;100.00
31911;BME280;18457;52.432;16.914;2023-12-20T11:38:57;99466.29;;;7.32;100.00
31911;BME280;18457;52.432;16.914;2023-12-20T11:41:33;99456.91;;;7.20;100.00
31911;BME280;18457;52.432;16.914;2023-12-20T11:44:07;99455.54;;;7.10;100.00
31911;BME280;18457;52.432;16.914;2023-12-20T11:46:40;99453.62;;;7.08;100.00
31911;BME280;18457;52.432;16.914;2023-12-20T11:49:13;99457.41;;;7.07;100.00
31911;BME280;18457;52.432;16.914;2023-12-20T11:51:45;99450.62;;;7.06;100.00
31911;BME280;18457;52.432;16.914;2023-12-20T11:54:18;99450.88;;;7.03;100.00
31911;BME280;18457;52.432;16.914;2023-12-20T11:56:50;99447.01;;;6.92;100.00
31911;BME280;18457;52.432;16.914;2023-12-20T11:59:22;99447.16;;;6.79;100.00
31911;BME280;18457;52.432;16.914;2023-12-20T12:01:55;99442.23;;;6.89;100.00
31911;BME280;18457;52.432;16.914;2023-12-20T12:04:32;99436.13;;;6.89;100.00
31911;BME280;18457;52.432;16.914;2023-12-20T12:07:05;99432.88;;;6.98;100.00
31911;BME280;18457;52.432;16.914;2023-12-20T12:09:38;99427.72;;;7.02;100.00
31911;BME280;18457;52.432;16.914;2023-12-20T12:12:11;99420.59;;;7.00;100.00
31911;BME280;18457;52.432;16.914;2023-12-20T12:14:45;99410.63;;;7.11;100.00
31911;BME280;18457;52.432;16.914;2023-12-20T12:17:18;99402.64;;;7.14;100.00
31911;BME280;18457;52.432;16.914;2023-12-20T12:19:50;99405.88;;;7.14;100.00
31911;BME280;18457;52.432;16.914;2023-12-20T12:22:23;99408.56;;;7.14;100.00
31911;BME280;18457;52.432;16.914;2023-12-20T12:25:08;99402.61;;;7.15;100.00
31911;BME280;18457;52.432;16.914;2023-12-20T12:27:43;99402.95;;;7.09;100.00
31911;BME280;18457;52.432;16.914;2023-12-20T12:30:17;99396.16;;;7.07;100.00
31911;BME280;18457;52.432;16.914;2023-12-20T12:32:49;99391.85;;;7.15;100.00
31911;BME280;18457;52.432;16.914;2023-12-20T12:35:23;99384.40;;;7.04;100.00
31911;BME280;18457;52.432;16.914;2023-12-20T12:37:55;99382.77;;;7.05;100.00
31911;BME280;18457;52.432;16.914;2023-12-20T12:40:34;99380.14;;;7.02;100.00
31911;BME280;18457;52.432;16.914;2023-12-20T12:43:07;99372.22;;;6.97;100.00
31911;BME280;18457;52.432;16.914;2023-12-20T12:45:39;99374.17;;;6.97;100.00
31911;BME280;18457;52.432;16.914;2023-12-20T12:48:12;99367.55;;;7.03;100.00
31911;BME280;18457;52.432;16.914;2023-12-20T12:50:45;99367.59;;;7.09;100.00
31911;BME280;18457;52.432;16.914;2023-12-20T12:53:18;99360.16;;;7.11;100.00
31911;BME280;18457;52.432;16.914;2023-12-20T12:55:50;99356.50;;;7.14;100.00
31911;BME280;18457;52.432;16.914;2023-12-20T12:58:34;99358.46;;;7.07;100.00
31911;BME280;18457;52.432;16.914;2023-12-20T13:01:06;99360.34;;;7.11;100.00
31911;BME280;18457;52.432;16.914;2023-12-20T13:03:39;99365.17;;;7.12;100.00
31911;BME280;18457;52.432;16.914;2023-12-20T13:06:11;99365.30;;;7.07;100.00
31911;BME280;18457;52.432;16.914;2023-12-20T13:08:44;99367.41;;;7.02;100.00
31911;BME280;18457;52.432;16.914;2023-12-20T13:11:16;99356.05;;;7.03;100.00
31911;BME280;18457;52.432;16.914;2023-12-20T13:13:50;99353.48;;;6.92;100.00
31911;BME280;18457;52.432;16.914;2023-12-20T13:16:22;99355.10;;;6.99;100.00
31911;BME280;18457;52.432;16.914;2023-12-20T13:18:55;99344.29;;;7.00;100.00
31911;BME280;18457;52.432;16.914;2023-12-20T13:21:28;99337.98;;;7.08;100.00